Oologah, Oklahoma
Current Conditions -  °F | °C
As of 10:55 AM on Thursday 23 Oct 2014 (Local Time) from KGCM Reporting Station
Moderate Rain Moderate Rain  
Wind Chill: 55°   Ceiling: 1000
Heat Index: 55°   Visibility: 5mi
Dew Point: 55°   Wind: 7mph
Humidity: 100%   Direction: 160°SSE
Pressure: 30.21"   Gusts: NA
Location:  36.45°N, 95.71°W
Report Text: KGCM 231555Z AUTO 16006KT 5SM RA BKN010 13/13 A3021 RMK AO2 P0007
Loading
Personal Weather Stations






























Interactive Weather Map
Tropical Storm Tracking
New forecast layout! Learn more

10-Day Weather Forecast

Advertisements
Track Severe Weather on mobile